sensor_id;sensor_type;location;lat;lon;timestamp;P1;durP1;ratioP1;P2;durP2;ratioP2
44366;SDS011;30086;57.660;12.000;2023-02-01T00:00:54;6.10;;;1.10;;
44366;SDS011;30086;57.660;12.000;2023-02-01T00:03:20;21.15;;;3.30;;
44366;SDS011;30086;57.660;12.000;2023-02-01T00:05:54;11.73;;;2.25;;
44366;SDS011;30086;57.660;12.000;2023-02-01T00:08:20;17.48;;;3.03;;
44366;SDS011;30086;57.660;12.000;2023-02-01T00:10:46;15.13;;;3.03;;
44366;SDS011;30086;57.660;12.000;2023-02-01T00:13:12;15.18;;;1.80;;
44366;SDS011;30086;57.660;12.000;2023-02-01T00:15:38;10.02;;;2.10;;
44366;SDS011;30086;57.660;12.000;2023-02-01T00:18:04;12.38;;;1.92;;
44366;SDS011;30086;57.660;12.000;2023-02-01T00:20:30;14.00;;;2.53;;
44366;SDS011;30086;57.660;12.000;2023-02-01T00:22:56;27.92;;;3.25;;
44366;SDS011;30086;57.660;12.000;2023-02-01T00:25:22;7.80;;;1.75;;
44366;SDS011;30086;57.660;12.000;2023-02-01T00:27:49;5.95;;;1.40;;
44366;SDS011;30086;57.660;12.000;2023-02-01T00:30:16;22.42;;;2.80;;
44366;SDS011;30086;57.660;12.000;2023-02-01T00:32:42;8.13;;;1.85;;
44366;SDS011;30086;57.660;12.000;2023-02-01T00:35:08;11.15;;;2.30;;
44366;SDS011;30086;57.660;12.000;2023-02-01T00:37:34;6.00;;;1.48;;
44366;SDS011;30086;57.660;12.000;2023-02-01T00:40:00;5.47;;;1.60;;
44366;SDS011;30086;57.660;12.000;2023-02-01T00:42:26;22.63;;;3.42;;
44366;SDS011;30086;57.660;12.000;2023-02-01T00:44:52;11.02;;;2.65;;
44366;SDS011;30086;57.660;12.000;2023-02-01T00:47:18;18.25;;;2.28;;
44366;SDS011;30086;57.660;12.000;2023-02-01T00:49:45;18.48;;;2.80;;
44366;SDS011;30086;57.660;12.000;2023-02-01T00:52:11;22.42;;;2.70;;
44366;SDS011;30086;57.660;12.000;2023-02-01T00:54:37;19.33;;;2.42;;
44366;SDS011;30086;57.660;12.000;2023-02-01T00:57:03;11.98;;;2.83;;
44366;SDS011;30086;57.660;12.000;2023-02-01T00:59:29;11.80;;;1.88;;
44366;SDS011;30086;57.660;12.000;2023-02-01T01:01:55;7.10;;;1.85;;
44366;SDS011;30086;57.660;12.000;2023-02-01T01:04:21;15.75;;;3.08;;
44366;SDS011;30086;57.660;12.000;2023-02-01T01:06:47;13.50;;;2.47;;
44366;SDS011;30086;57.660;12.000;2023-02-01T01:09:13;16.67;;;2.72;;
44366;SDS011;30086;57.660;12.000;2023-02-01T01:11:39;9.15;;;1.45;;
44366;SDS011;30086;57.660;12.000;2023-02-01T01:14:06;16.55;;;2.80;;
44366;SDS011;30086;57.660;12.000;2023-02-01T01:16:32;16.83;;;2.78;;
44366;SDS011;30086;57.660;12.000;2023-02-01T01:18:58;27.40;;;5.18;;
44366;SDS011;30086;57.660;12.000;2023-02-01T01:21:25;8.80;;;2.60;;
44366;SDS011;30086;57.660;12.000;2023-02-01T01:23:51;16.42;;;2.50;;
44366;SDS011;30086;57.660;12.000;2023-02-01T01:26:18;13.10;;;3.63;;
44366;SDS011;30086;57.660;12.000;2023-02-01T01:28:45;27.27;;;5.18;;
44366;SDS011;30086;57.660;12.000;2023-02-01T01:31:11;21.33;;;3.15;;
44366;SDS011;30086;57.660;12.000;2023-02-01T01:33:38;25.38;;;5.75;;
44366;SDS011;30086;57.660;12.000;2023-02-01T01:36:05;23.67;;;4.22;;
44366;SDS011;30086;57.660;12.000;2023-02-01T01:38:31;19.35;;;2.95;;
44366;SDS011;30086;57.660;12.000;2023-02-01T01:40:57;18.23;;;4.30;;
44366;SDS011;30086;57.660;12.000;2023-02-01T01:43:23;14.35;;;3.05;;
44366;SDS011;30086;57.660;12.000;2023-02-01T01:45:49;17.25;;;3.40;;
44366;SDS011;30086;57.660;12.000;2023-02-01T01:48:34;25.77;;;3.95;;
44366;SDS011;30086;57.660;12.000;2023-02-01T01:53:27;24.83;;;3.28;;
44366;SDS011;30086;57.660;12.000;2023-02-01T01:55:54;20.25;;;3.25;;
44366;SDS011;30086;57.660;12.000;2023-02-01T01:58:23;11.07;;;2.70;;
44366;SDS011;30086;57.660;12.000;2023-02-01T02:00:50;8.75;;;2.10;;
44366;SDS011;30086;57.660;12.000;2023-02-01T02:05:45;13.20;;;3.05;;
44366;SDS011;30086;57.660;12.000;2023-02-01T02:08:13;12.57;;;3.17;;
44366;SDS011;30086;57.660;12.000;2023-02-01T02:10:39;17.00;;;3.75;;
44366;SDS011;30086;57.660;12.000;2023-02-01T02:13:24;23.42;;;5.03;;
44366;SDS011;30086;57.660;12.000;2023-02-01T02:16:00;23.00;;;3.80;;
44366;SDS011;30086;57.660;12.000;2023-02-01T02:18:36;21.60;;;3.58;;
44366;SDS011;30086;57.660;12.000;2023-02-01T02:32:21;19.80;;;4.93;;
44366;SDS011;30086;57.660;12.000;2023-02-01T02:35:07;30.20;;;4.85;;
44366;SDS011;30086;57.660;12.000;2023-02-01T02:40:18;28.88;;;5.90;;
44366;SDS011;30086;57.660;12.000;2023-02-01T02:42:53;15.13;;;3.28;;
44366;SDS011;30086;57.660;12.000;2023-02-01T02:46:01;25.35;;;3.88;;
44366;SDS011;30086;57.660;12.000;2023-02-01T02:48:51;29.70;;;4.95;;
44366;SDS011;30086;57.660;12.000;2023-02-01T02:51:23;17.88;;;2.90;;
44366;SDS011;30086;57.660;12.000;2023-02-01T02:54:13;23.27;;;5.47;;
44366;SDS011;30086;57.660;12.000;2023-02-01T02:56:59;27.90;;;5.93;;
44366;SDS011;30086;57.660;12.000;2023-02-01T02:59:46;14.90;;;3.97;;
44366;SDS011;30086;57.660;12.000;2023-02-01T03:02:31;20.90;;;3.20;;
44366;SDS011;30086;57.660;12.000;2023-02-01T03:05:16;17.73;;;2.53;;
44366;SDS011;30086;57.660;12.000;2023-02-01T03:10:26;11.15;;;2.70;;
44366;SDS011;30086;57.660;12.000;2023-02-01T03:12:54;20.52;;;3.00;;
44366;SDS011;30086;57.660;12.000;2023-02-01T03:15:36;13.35;;;3.13;;
44366;SDS011;30086;57.660;12.000;2023-02-01T03:18:04;21.38;;;3.53;;
44366;SDS011;30086;57.660;12.000;2023-02-01T03:20:32;23.42;;;4.10;;
44366;SDS011;30086;57.660;12.000;2023-02-01T03:22:58;32.47;;;4.35;;
44366;SDS011;30086;57.660;12.000;2023-02-01T03:25:26;27.65;;;4.68;;
44366;SDS011;30086;57.660;12.000;2023-02-01T03:27:54;21.27;;;3.75;;
44366;SDS011;30086;57.660;12.000;2023-02-01T03:30:30;31.85;;;5.05;;
44366;SDS011;30086;57.660;12.000;2023-02-01T03:32:58;29.98;;;4.40;;
44366;SDS011;30086;57.660;12.000;2023-02-01T03:37:56;47.42;;;8.38;;
44366;SDS011;30086;57.660;12.000;2023-02-01T03:40:26;29.23;;;5.20;;
44366;SDS011;30086;57.660;12.000;2023-02-01T03:42:54;28.55;;;4.95;;
44366;SDS011;30086;57.660;12.000;2023-02-01T03:45:28;37.28;;;6.10;;
44366;SDS011;30086;57.660;12.000;2023-02-01T03:47:57;41.85;;;7.40;;
44366;SDS011;30086;57.660;12.000;2023-02-01T03:50:25;38.67;;;6.00;;
44366;SDS011;30086;57.660;12.000;2023-02-01T03:53:02;29.58;;;4.72;;
44366;SDS011;30086;57.660;12.000;2023-02-01T03:55:29;23.13;;;4.53;;
44366;SDS011;30086;57.660;12.000;2023-02-01T04:00:34;18.10;;;4.53;;
44366;SDS011;30086;57.660;12.000;2023-02-01T04:03:01;27.85;;;6.30;;
44366;SDS011;30086;57.660;12.000;2023-02-01T04:05:28;37.17;;;7.28;;
44366;SDS011;30086;57.660;12.000;2023-02-01T04:07:55;18.45;;;4.50;;
44366;SDS011;30086;57.660;12.000;2023-02-01T04:10:21;28.52;;;6.18;;
44366;SDS011;30086;57.660;12.000;2023-02-01T04:12:47;26.23;;;5.55;;
44366;SDS011;30086;57.660;12.000;2023-02-01T04:15:14;38.05;;;6.18;;
44366;SDS011;30086;57.660;12.000;2023-02-01T04:17:40;15.80;;;2.97;;
44366;SDS011;30086;57.660;12.000;2023-02-01T04:20:06;17.13;;;2.40;;
44366;SDS011;30086;57.660;12.000;2023-02-01T04:22:32;44.25;;;7.03;;
44366;SDS011;30086;57.660;12.000;2023-02-01T04:24:58;25.38;;;5.43;;
44366;SDS011;30086;57.660;12.000;2023-02-01T04:27:24;36.42;;;8.93;;
44366;SDS011;30086;57.660;12.000;2023-02-01T04:29:50;24.45;;;5.82;;
44366;SDS011;30086;57.660;12.000;2023-02-01T04:32:16;22.25;;;4.95;;
44366;SDS011;30086;57.660;12.000;2023-02-01T04:34:43;21.38;;;3.30;;
44366;SDS011;30086;57.660;12.000;2023-02-01T04:37:09;40.05;;;6.65;;
44366;SDS011;30086;57.660;12.000;2023-02-01T04:39:35;41.75;;;7.10;;
44366;SDS011;30086;57.660;12.000;2023-02-01T04:42:01;45.25;;;8.85;;
44366;SDS011;30086;57.660;12.000;2023-02-01T04:44:27;29.98;;;6.32;;
44366;SDS011;30086;57.660;12.000;2023-02-01T04:46:53;27.70;;;4.45;;
44366;SDS011;30086;57.660;12.000;2023-02-01T04:49:19;25.92;;;5.47;;
44366;SDS011;30086;57.660;12.000;2023-02-01T04:51:46;42.80;;;5.82;;
44366;SDS011;30086;57.660;12.000;2023-02-01T04:54:12;37.10;;;6.38;;
44366;SDS011;30086;57.660;12.000;2023-02-01T04:56:39;27.77;;;4.50;;
44366;SDS011;30086;57.660;12.000;2023-02-01T04:59:05;28.42;;;5.68;;
44366;SDS011;30086;57.660;12.000;2023-02-01T05:01:31;41.45;;;6.82;;
44366;SDS011;30086;57.660;12.000;2023-02-01T05:03:58;47.42;;;8.93;;
44366;SDS011;30086;57.660;12.000;2023-02-01T05:06:24;32.75;;;5.10;;
44366;SDS011;30086;57.660;12.000;2023-02-01T05:08:50;35.00;;;6.95;;
44366;SDS011;30086;57.660;12.000;2023-02-01T05:11:16;43.78;;;6.75;;
44366;SDS011;30086;57.660;12.000;2023-02-01T05:14:01;47.53;;;7.90;;
44366;SDS011;30086;57.660;12.000;2023-02-01T05:16:27;45.80;;;8.55;;
44366;SDS011;30086;57.660;12.000;2023-02-01T05:18:53;25.63;;;4.05;;
44366;SDS011;30086;57.660;12.000;2023-02-01T05:21:19;32.58;;;4.38;;
44366;SDS011;30086;57.660;12.000;2023-02-01T05:23:46;37.88;;;7.32;;
44366;SDS011;30086;57.660;12.000;2023-02-01T05:26:31;30.25;;;5.30;;
44366;SDS011;30086;57.660;12.000;2023-02-01T05:28:57;30.38;;;5.30;;
44366;SDS011;30086;57.660;12.000;2023-02-01T05:31:23;35.00;;;7.25;;
44366;SDS011;30086;57.660;12.000;2023-02-01T05:33:49;8.77;;;1.77;;
44366;SDS011;30086;57.660;12.000;2023-02-01T05:36:16;39.40;;;7.13;;
44366;SDS011;30086;57.660;12.000;2023-02-01T05:38:42;28.58;;;5.05;;
44366;SDS011;30086;57.660;12.000;2023-02-01T05:41:08;13.50;;;3.75;;
44366;SDS011;30086;57.660;12.000;2023-02-01T05:43:34;30.65;;;6.60;;
44366;SDS011;30086;57.660;12.000;2023-02-01T05:46:00;20.73;;;3.90;;
44366;SDS011;30086;57.660;12.000;2023-02-01T05:48:26;33.83;;;5.28;;
44366;SDS011;30086;57.660;12.000;2023-02-01T05:50:52;27.02;;;4.40;;
44366;SDS011;30086;57.660;12.000;2023-02-01T05:53:19;15.65;;;3.88;;
44366;SDS011;30086;57.660;12.000;2023-02-01T05:55:45;16.23;;;3.15;;
44366;SDS011;30086;57.660;12.000;2023-02-01T05:58:11;20.50;;;3.63;;
44366;SDS011;30086;57.660;12.000;2023-02-01T06:00:37;19.08;;;3.08;;
44366;SDS011;30086;57.660;12.000;2023-02-01T06:03:03;10.38;;;2.65;;
44366;SDS011;30086;57.660;12.000;2023-02-01T06:05:30;24.45;;;3.45;;
44366;SDS011;30086;57.660;12.000;2023-02-01T06:07:56;26.73;;;6.63;;
44366;SDS011;30086;57.660;12.000;2023-02-01T06:10:22;20.98;;;4.03;;
44366;SDS011;30086;57.660;12.000;2023-02-01T06:12:50;30.38;;;4.03;;
44366;SDS011;30086;57.660;12.000;2023-02-01T06:15:17;30.85;;;5.25;;
44366;SDS011;30086;57.660;12.000;2023-02-01T06:17:44;13.35;;;2.45;;
44366;SDS011;30086;57.660;12.000;2023-02-01T06:20:11;27.33;;;5.15;;
44366;SDS011;30086;57.660;12.000;2023-02-01T06:22:37;21.35;;;3.35;;
44366;SDS011;30086;57.660;12.000;2023-02-01T06:25:04;36.17;;;6.57;;
44366;SDS011;30086;57.660;12.000;2023-02-01T06:27:31;38.70;;;8.40;;
44366;SDS011;30086;57.660;12.000;2023-02-01T06:29:57;33.42;;;5.05;;
44366;SDS011;30086;57.660;12.000;2023-02-01T06:32:23;25.23;;;4.45;;
44366;SDS011;30086;57.660;12.000;2023-02-01T06:34:49;31.05;;;4.63;;
44366;SDS011;30086;57.660;12.000;2023-02-01T06:37:17;32.17;;;5.75;;
44366;SDS011;30086;57.660;12.000;2023-02-01T06:39:44;18.40;;;3.03;;
44366;SDS011;30086;57.660;12.000;2023-02-01T06:42:10;27.90;;;3.92;;
44366;SDS011;30086;57.660;12.000;2023-02-01T06:44:36;29.90;;;4.85;;
44366;SDS011;30086;57.660;12.000;2023-02-01T06:47:05;28.60;;;4.60;;
44366;SDS011;30086;57.660;12.000;2023-02-01T06:49:31;27.85;;;4.57;;
44366;SDS011;30086;57.660;12.000;2023-02-01T06:51:57;17.63;;;3.38;;
44366;SDS011;30086;57.660;12.000;2023-02-01T06:54:27;34.10;;;5.38;;
44366;SDS011;30086;57.660;12.000;2023-02-01T06:56:53;32.72;;;5.32;;
44366;SDS011;30086;57.660;12.000;2023-02-01T06:59:19;10.93;;;2.60;;
44366;SDS011;30086;57.660;12.000;2023-02-01T07:01:45;17.65;;;3.05;;
44366;SDS011;30086;57.660;12.000;2023-02-01T07:04:11;27.55;;;4.55;;
44366;SDS011;30086;57.660;12.000;2023-02-01T07:06:38;30.20;;;4.55;;
44366;SDS011;30086;57.660;12.000;2023-02-01T07:09:04;31.85;;;5.85;;
44366;SDS011;30086;57.660;12.000;2023-02-01T07:11:30;18.02;;;3.67;;
44366;SDS011;30086;57.660;12.000;2023-02-01T07:13:57;27.38;;;4.88;;
44366;SDS011;30086;57.660;12.000;2023-02-01T07:16:23;41.92;;;6.90;;
44366;SDS011;30086;57.660;12.000;2023-02-01T07:18:49;21.95;;;3.72;;
44366;SDS011;30086;57.660;12.000;2023-02-01T07:21:16;34.30;;;4.93;;
44366;SDS011;30086;57.660;12.000;2023-02-01T07:23:42;43.22;;;5.78;;
44366;SDS011;30086;57.660;12.000;2023-02-01T07:26:09;23.08;;;2.90;;
44366;SDS011;30086;57.660;12.000;2023-02-01T07:28:37;19.95;;;3.78;;
44366;SDS011;30086;57.660;12.000;2023-02-01T07:31:07;30.17;;;5.15;;
44366;SDS011;30086;57.660;12.000;2023-02-01T07:33:34;15.38;;;2.97;;
44366;SDS011;30086;57.660;12.000;2023-02-01T07:36:01;11.77;;;3.03;;
44366;SDS011;30086;57.660;12.000;2023-02-01T07:38:31;19.27;;;3.30;;
44366;SDS011;30086;57.660;12.000;2023-02-01T07:40:57;12.43;;;1.70;;
44366;SDS011;30086;57.660;12.000;2023-02-01T07:43:24;22.52;;;3.72;;
44366;SDS011;30086;57.660;12.000;2023-02-01T07:45:51;14.38;;;2.60;;
44366;SDS011;30086;57.660;12.000;2023-02-01T07:48:17;25.17;;;4.43;;
44366;SDS011;30086;57.660;12.000;2023-02-01T07:50:43;21.23;;;3.88;;
44366;SDS011;30086;57.660;12.000;2023-02-01T07:53:09;13.90;;;3.03;;
44366;SDS011;30086;57.660;12.000;2023-02-01T07:55:39;22.48;;;5.07;;
44366;SDS011;30086;57.660;12.000;2023-02-01T07:58:05;18.27;;;3.22;;
44366;SDS011;30086;57.660;12.000;2023-02-01T08:00:31;6.47;;;1.90;;
44366;SDS011;30086;57.660;12.000;2023-02-01T08:03:15;11.07;;;2.80;;
44366;SDS011;30086;57.660;12.000;2023-02-01T08:05:41;23.73;;;5.03;;
44366;SDS011;30086;57.660;12.000;2023-02-01T08:08:07;23.33;;;3.22;;
44366;SDS011;30086;57.660;12.000;2023-02-01T08:10:34;26.25;;;3.17;;
44366;SDS011;30086;57.660;12.000;2023-02-01T08:13:00;21.35;;;4.65;;
44366;SDS011;30086;57.660;12.000;2023-02-01T08:15:27;23.27;;;5.00;;
44366;SDS011;30086;57.660;12.000;2023-02-01T08:17:53;25.30;;;4.13;;
44366;SDS011;30086;57.660;12.000;2023-02-01T08:20:20;20.05;;;3.03;;
44366;SDS011;30086;57.660;12.000;2023-02-01T08:22:47;21.85;;;4.60;;
44366;SDS011;30086;57.660;12.000;2023-02-01T08:25:13;12.80;;;2.10;;
44366;SDS011;30086;57.660;12.000;2023-02-01T08:27:39;17.48;;;2.80;;
44366;SDS011;30086;57.660;12.000;2023-02-01T08:30:06;8.60;;;2.15;;
44366;SDS011;30086;57.660;12.000;2023-02-01T08:32:32;19.33;;;3.20;;
44366;SDS011;30086;57.660;12.000;2023-02-01T08:34:59;15.63;;;2.70;;
44366;SDS011;30086;57.660;12.000;2023-02-01T08:37:25;16.63;;;3.08;;
44366;SDS011;30086;57.660;12.000;2023-02-01T08:39:51;25.83;;;5.68;;
44366;SDS011;30086;57.660;12.000;2023-02-01T08:42:17;20.33;;;4.18;;
44366;SDS011;30086;57.660;12.000;2023-02-01T08:45:02;26.27;;;4.50;;
44366;SDS011;30086;57.660;12.000;2023-02-01T08:47:28;21.05;;;2.38;;
44366;SDS011;30086;57.660;12.000;2023-02-01T08:49:54;17.23;;;2.83;;
44366;SDS011;30086;57.660;12.000;2023-02-01T08:52:20;34.05;;;6.28;;
44366;SDS011;30086;57.660;12.000;2023-02-01T08:54:46;22.33;;;2.83;;
44366;SDS011;30086;57.660;12.000;2023-02-01T08:57:12;29.05;;;5.22;;
44366;SDS011;30086;57.660;12.000;2023-02-01T08:59:38;36.05;;;5.75;;
44366;SDS011;30086;57.660;12.000;2023-02-01T09:02:04;42.50;;;6.35;;
44366;SDS011;30086;57.660;12.000;2023-02-01T09:04:31;38.08;;;5.88;;
44366;SDS011;30086;57.660;12.000;2023-02-01T09:06:57;35.47;;;6.45;;
44366;SDS011;30086;57.660;12.000;2023-02-01T09:09:23;20.10;;;4.30;;
44366;SDS011;30086;57.660;12.000;2023-02-01T09:11:49;23.77;;;3.17;;
44366;SDS011;30086;57.660;12.000;2023-02-01T09:14:16;23.83;;;5.43;;
44366;SDS011;30086;57.660;12.000;2023-02-01T09:16:42;33.20;;;5.53;;
44366;SDS011;30086;57.660;12.000;2023-02-01T09:19:08;17.63;;;3.53;;
44366;SDS011;30086;57.660;12.000;2023-02-01T09:21:34;33.63;;;5.63;;
44366;SDS011;30086;57.660;12.000;2023-02-01T09:24:00;33.88;;;5.32;;
44366;SDS011;30086;57.660;12.000;2023-02-01T09:26:26;37.28;;;6.93;;
44366;SDS011;30086;57.660;12.000;2023-02-01T09:28:52;28.98;;;5.40;;
44366;SDS011;30086;57.660;12.000;2023-02-01T09:31:19;29.10;;;7.45;;
44366;SDS011;30086;57.660;12.000;2023-02-01T09:33:45;23.90;;;5.30;;
44366;SDS011;30086;57.660;12.000;2023-02-01T09:36:11;17.77;;;2.92;;
44366;SDS011;30086;57.660;12.000;2023-02-01T09:38:37;27.30;;;4.68;;
44366;SDS011;30086;57.660;12.000;2023-02-01T09:41:07;17.52;;;4.20;;
44366;SDS011;30086;57.660;12.000;2023-02-01T09:48:47;35.70;;;4.30;;
44366;SDS011;30086;57.660;12.000;2023-02-01T09:51:25;11.43;;;2.60;;
44366;SDS011;30086;57.660;12.000;2023-02-01T09:54:26;36.67;;;5.28;;
44366;SDS011;30086;57.660;12.000;2023-02-01T09:56:59;28.13;;;5.55;;
44366;SDS011;30086;57.660;12.000;2023-02-01T09:59:29;33.92;;;5.22;;
44366;SDS011;30086;57.660;12.000;2023-02-01T10:01:58;37.15;;;6.05;;
44366;SDS011;30086;57.660;12.000;2023-02-01T10:04:24;19.13;;;4.05;;
44366;SDS011;30086;57.660;12.000;2023-02-01T10:09:26;22.52;;;4.80;;
44366;SDS011;30086;57.660;12.000;2023-02-01T10:22:08;39.90;;;7.55;;
44366;SDS011;30086;57.660;12.000;2023-02-01T10:27:02;26.05;;;4.07;;
44366;SDS011;30086;57.660;12.000;2023-02-01T10:29:36;22.52;;;4.10;;
44366;SDS011;30086;57.660;12.000;2023-02-01T10:32:03;28.45;;;5.57;;
44366;SDS011;30086;57.660;12.000;2023-02-01T10:34:34;35.58;;;7.03;;
44366;SDS011;30086;57.660;12.000;2023-02-01T10:37:23;40.97;;;7.32;;
44366;SDS011;30086;57.660;12.000;2023-02-01T10:39:47;27.10;;;4.03;;
44366;SDS011;30086;57.660;12.000;2023-02-01T10:42:14;27.75;;;3.05;;
44366;SDS011;30086;57.660;12.000;2023-02-01T10:44:42;6.22;;;1.80;;
44366;SDS011;30086;57.660;12.000;2023-02-01T10:47:10;30.30;;;3.83;;
44366;SDS011;30086;57.660;12.000;2023-02-01T10:54:52;11.77;;;2.10;;
44366;SDS011;30086;57.660;12.000;2023-02-01T10:57:20;15.27;;;2.58;;
44366;SDS011;30086;57.660;12.000;2023-02-01T10:59:46;32.38;;;5.18;;
44366;SDS011;30086;57.660;12.000;2023-02-01T11:02:20;28.13;;;4.10;;
44366;SDS011;30086;57.660;12.000;2023-02-01T11:04:57;35.42;;;5.30;;
44366;SDS011;30086;57.660;12.000;2023-02-01T11:07:25;32.55;;;5.65;;
44366;SDS011;30086;57.660;12.000;2023-02-01T11:09:52;37.25;;;7.03;;
44366;SDS011;30086;57.660;12.000;2023-02-01T11:12:34;22.50;;;4.82;;
44366;SDS011;30086;57.660;12.000;2023-02-01T11:17:38;45.30;;;6.95;;
44366;SDS011;30086;57.660;12.000;2023-02-01T11:20:08;42.75;;;7.15;;
44366;SDS011;30086;57.660;12.000;2023-02-01T11:22:38;41.75;;;7.82;;
44366;SDS011;30086;57.660;12.000;2023-02-01T11:25:13;23.80;;;3.38;;
44366;SDS011;30086;57.660;12.000;2023-02-01T11:27:40;32.45;;;4.72;;
44366;SDS011;30086;57.660;12.000;2023-02-01T11:30:06;31.63;;;6.20;;
44366;SDS011;30086;57.660;12.000;2023-02-01T11:32:33;27.13;;;4.57;;
44366;SDS011;30086;57.660;12.000;2023-02-01T11:35:01;37.10;;;6.72;;
44366;SDS011;30086;57.660;12.000;2023-02-01T11:37:29;25.73;;;6.38;;
44366;SDS011;30086;57.660;12.000;2023-02-01T11:39:57;43.17;;;6.47;;
44366;SDS011;30086;57.660;12.000;2023-02-01T11:42:24;29.10;;;5.15;;
44366;SDS011;30086;57.660;12.000;2023-02-01T11:44:50;52.33;;;7.90;;
44366;SDS011;30086;57.660;12.000;2023-02-01T11:47:21;40.42;;;6.70;;
44366;SDS011;30086;57.660;12.000;2023-02-01T11:49:48;54.03;;;7.88;;
44366;SDS011;30086;57.660;12.000;2023-02-01T11:54:46;51.92;;;8.63;;
44366;SDS011;30086;57.660;12.000;2023-02-01T12:02:39;15.65;;;3.30;;
44366;SDS011;30086;57.660;12.000;2023-02-01T12:05:56;25.17;;;4.50;;
44366;SDS011;30086;57.660;12.000;2023-02-01T12:10:33;39.08;;;6.32;;
44366;SDS011;30086;57.660;12.000;2023-02-01T12:13:07;27.25;;;6.18;;
44366;SDS011;30086;57.660;12.000;2023-02-01T12:15:45;18.90;;;3.47;;
44366;SDS011;30086;57.660;12.000;2023-02-01T12:18:19;19.55;;;4.53;;
44366;SDS011;30086;57.660;12.000;2023-02-01T12:34:32;21.10;;;3.35;;
44366;SDS011;30086;57.660;12.000;2023-02-01T12:39:30;24.10;;;4.43;;
44366;SDS011;30086;57.660;12.000;2023-02-01T12:44:27;29.55;;;3.83;;
44366;SDS011;30086;57.660;12.000;2023-02-01T12:46:57;24.58;;;4.63;;
44366;SDS011;30086;57.660;12.000;2023-02-01T12:52:43;32.25;;;6.40;;
44366;SDS011;30086;57.660;12.000;2023-02-01T12:55:03;28.92;;;4.15;;
44366;SDS011;30086;57.660;12.000;2023-02-01T12:57:32;35.95;;;5.35;;
44366;SDS011;30086;57.660;12.000;2023-02-01T13:02:39;32.90;;;5.70;;
44366;SDS011;30086;57.660;12.000;2023-02-01T13:12:40;31.77;;;4.70;;
44366;SDS011;30086;57.660;12.000;2023-02-01T13:15:24;47.05;;;7.72;;
44366;SDS011;30086;57.660;12.000;2023-02-01T13:17:51;21.15;;;4.30;;
44366;SDS011;30086;57.660;12.000;2023-02-01T13:23:00;40.28;;;7.57;;
44366;SDS011;30086;57.660;12.000;2023-02-01T13:26:00;35.50;;;6.15;;
44366;SDS011;30086;57.660;12.000;2023-02-01T13:30:55;45.42;;;6.50;;
44366;SDS011;30086;57.660;12.000;2023-02-01T13:33:30;38.78;;;5.88;;
44366;SDS011;30086;57.660;12.000;2023-02-01T13:43:29;44.20;;;8.35;;
44366;SDS011;30086;57.660;12.000;2023-02-01T13:45:56;44.17;;;7.97;;
44366;SDS011;30086;57.660;12.000;2023-02-01T13:48:31;42.58;;;7.57;;
44366;SDS011;30086;57.660;12.000;2023-02-01T13:50:59;48.30;;;9.00;;
44366;SDS011;30086;57.660;12.000;2023-02-01T13:53:29;32.45;;;5.82;;
44366;SDS011;30086;57.660;12.000;2023-02-01T13:56:03;41.53;;;5.85;;
44366;SDS011;30086;57.660;12.000;2023-02-01T13:58:35;48.47;;;7.30;;
44366;SDS011;30086;57.660;12.000;2023-02-01T14:01:45;30.02;;;5.93;;
44366;SDS011;30086;57.660;12.000;2023-02-01T14:03:56;40.78;;;7.13;;
44366;SDS011;30086;57.660;12.000;2023-02-01T14:11:40;32.10;;;6.10;;
44366;SDS011;30086;57.660;12.000;2023-02-01T14:14:52;45.38;;;6.32;;
44366;SDS011;30086;57.660;12.000;2023-02-01T14:24:33;53.70;;;9.10;;
44366;SDS011;30086;57.660;12.000;2023-02-01T14:27:01;55.63;;;10.48;;
44366;SDS011;30086;57.660;12.000;2023-02-01T14:29:31;58.80;;;8.98;;
44366;SDS011;30086;57.660;12.000;2023-02-01T14:37:00;40.35;;;8.27;;
44366;SDS011;30086;57.660;12.000;2023-02-01T14:39:28;37.28;;;6.72;;
44366;SDS011;30086;57.660;12.000;2023-02-01T14:42:03;40.10;;;6.20;;
44366;SDS011;30086;57.660;12.000;2023-02-01T14:44:31;22.15;;;3.80;;
44366;SDS011;30086;57.660;12.000;2023-02-01T14:47:08;16.10;;;3.50;;
44366;SDS011;30086;57.660;12.000;2023-02-01T14:49:37;23.50;;;3.95;;
44366;SDS011;30086;57.660;12.000;2023-02-01T14:52:05;18.40;;;3.05;;
44366;SDS011;30086;57.660;12.000;2023-02-01T14:54:31;24.48;;;3.47;;
44366;SDS011;30086;57.660;12.000;2023-02-01T14:56:57;18.98;;;3.17;;
44366;SDS011;30086;57.660;12.000;2023-02-01T14:59:24;23.52;;;4.55;;
44366;SDS011;30086;57.660;12.000;2023-02-01T15:01:55;19.63;;;3.03;;
44366;SDS011;30086;57.660;12.000;2023-02-01T15:04:24;13.07;;;2.85;;
44366;SDS011;30086;57.660;12.000;2023-02-01T15:06:54;15.02;;;2.50;;
44366;SDS011;30086;57.660;12.000;2023-02-01T15:14:20;10.30;;;1.65;;
44366;SDS011;30086;57.660;12.000;2023-02-01T15:16:46;9.27;;;1.58;;
44366;SDS011;30086;57.660;12.000;2023-02-01T15:19:18;12.43;;;1.25;;
44366;SDS011;30086;57.660;12.000;2023-02-01T15:21:48;3.05;;;0.90;;
44366;SDS011;30086;57.660;12.000;2023-02-01T15:24:36;6.40;;;1.35;;
44366;SDS011;30086;57.660;12.000;2023-02-01T15:27:05;6.18;;;1.38;;
44366;SDS011;30086;57.660;12.000;2023-02-01T15:29:31;9.70;;;1.10;;
44366;SDS011;30086;57.660;12.000;2023-02-01T15:31:58;7.10;;;0.85;;
44366;SDS011;30086;57.660;12.000;2023-02-01T15:34:43;7.28;;;1.13;;
44366;SDS011;30086;57.660;12.000;2023-02-01T15:37:13;4.07;;;1.10;;
44366;SDS011;30086;57.660;12.000;2023-02-01T15:42:25;4.47;;;0.80;;
44366;SDS011;30086;57.660;12.000;2023-02-01T15:44:52;7.93;;;0.95;;
44366;SDS011;30086;57.660;12.000;2023-02-01T15:47:23;3.60;;;1.00;;
44366;SDS011;30086;57.660;12.000;2023-02-01T15:49:53;8.48;;;1.00;;
44366;SDS011;30086;57.660;12.000;2023-02-01T15:54:47;8.73;;;1.00;;
44366;SDS011;30086;57.660;12.000;2023-02-01T15:57:18;9.18;;;0.75;;
44366;SDS011;30086;57.660;12.000;2023-02-01T15:59:46;8.63;;;1.23;;
44366;SDS011;30086;57.660;12.000;2023-02-01T16:04:57;9.98;;;2.60;;
44366;SDS011;30086;57.660;12.000;2023-02-01T16:07:27;7.40;;;1.00;;
44366;SDS011;30086;57.660;12.000;2023-02-01T16:09:54;7.22;;;1.20;;
44366;SDS011;30086;57.660;12.000;2023-02-01T16:14:50;6.68;;;0.98;;
44366;SDS011;30086;57.660;12.000;2023-02-01T16:17:16;6.50;;;0.95;;
44366;SDS011;30086;57.660;12.000;2023-02-01T16:19:42;11.85;;;1.17;;
44366;SDS011;30086;57.660;12.000;2023-02-01T16:22:08;12.30;;;1.85;;
44366;SDS011;30086;57.660;12.000;2023-02-01T16:24:34;7.88;;;1.05;;
44366;SDS011;30086;57.660;12.000;2023-02-01T16:27:00;9.50;;;1.00;;
44366;SDS011;30086;57.660;12.000;2023-02-01T16:29:27;3.90;;;1.00;;
44366;SDS011;30086;57.660;12.000;2023-02-01T16:31:53;10.23;;;1.23;;
44366;SDS011;30086;57.660;12.000;2023-02-01T16:34:20;8.15;;;1.00;;
44366;SDS011;30086;57.660;12.000;2023-02-01T16:36:49;2.67;;;1.15;;
44366;SDS011;30086;57.660;12.000;2023-02-01T16:39:17;8.98;;;1.20;;
44366;SDS011;30086;57.660;12.000;2023-02-01T16:41:43;8.10;;;1.45;;
44366;SDS011;30086;57.660;12.000;2023-02-01T16:44:10;9.05;;;1.20;;
44366;SDS011;30086;57.660;12.000;2023-02-01T16:46:39;3.30;;;1.08;;
44366;SDS011;30086;57.660;12.000;2023-02-01T16:49:05;5.05;;;1.20;;
44366;SDS011;30086;57.660;12.000;2023-02-01T16:51:38;5.07;;;1.33;;
44366;SDS011;30086;57.660;12.000;2023-02-01T16:54:07;6.15;;;1.20;;
44366;SDS011;30086;57.660;12.000;2023-02-01T16:56:34;1.55;;;0.70;;